createdAt,value
2017-05-10T00:02:11.652Z,6.68
2017-05-10T00:04:39.933Z,6.66
2017-05-10T00:07:07.043Z,6.63
2017-05-10T00:09:34.021Z,6.61
2017-05-10T00:12:01.018Z,6.57
2017-05-10T00:14:27.997Z,6.55
2017-05-10T00:16:54.990Z,6.52
2017-05-10T00:19:21.953Z,6.50
2017-05-10T00:21:48.923Z,6.47
2017-05-10T00:24:15.930Z,6.45
2017-05-10T00:26:42.919Z,6.43
2017-05-10T00:29:09.987Z,6.40
2017-05-10T00:31:36.961Z,6.37
2017-05-10T00:34:03.958Z,6.35
2017-05-10T00:36:30.945Z,6.32
2017-05-10T00:38:57.925Z,6.30
2017-05-10T00:41:24.949Z,6.28
2017-05-10T00:43:51.953Z,6.26
2017-05-10T00:46:18.918Z,6.23
2017-05-10T00:48:45.893Z,6.21
2017-05-10T00:51:12.849Z,6.18
2017-05-10T00:53:39.829Z,6.16
2017-05-10T00:56:06.804Z,6.14
2017-05-10T00:58:33.841Z,6.12
2017-05-10T01:01:00.849Z,6.10
2017-05-10T01:03:27.823Z,6.08
2017-05-10T01:05:54.805Z,6.06
2017-05-10T01:08:21.788Z,6.04
2017-05-10T01:10:49.163Z,6.02
2017-05-10T01:13:16.151Z,6.01
2017-05-10T01:15:43.150Z,5.98
2017-05-10T01:18:10.142Z,5.96
2017-05-10T01:20:39.052Z,5.95
2017-05-10T01:23:06.036Z,5.93
2017-05-10T01:25:33.065Z,5.92
2017-05-10T01:28:00.022Z,5.91
2017-05-10T01:30:27.005Z,5.89
2017-05-10T01:32:53.988Z,5.88
2017-05-10T01:35:20.964Z,5.88
2017-05-10T01:37:47.950Z,5.88
2017-05-10T01:40:14.908Z,5.87
2017-05-10T01:42:41.902Z,5.86
2017-05-10T01:45:08.898Z,5.85
2017-05-10T01:47:35.854Z,5.84
2017-05-10T01:50:02.956Z,5.84
2017-05-10T01:52:30.578Z,5.83
2017-05-10T01:54:58.170Z,5.82
2017-05-10T01:59:58.546Z,5.80
2017-05-10T02:02:25.549Z,5.78
2017-05-10T02:04:52.509Z,5.75
2017-05-10T02:07:19.506Z,5.72
2017-05-10T02:09:46.457Z,5.70
2017-05-10T02:12:14.017Z,5.68
2017-05-10T02:14:40.978Z,5.66
2017-05-10T02:17:07.935Z,5.63
2017-05-10T02:19:34.937Z,5.61
2017-05-10T02:22:01.894Z,5.59
2017-05-10T02:24:28.870Z,5.57
2017-05-10T02:26:55.825Z,5.57
2017-05-10T02:29:22.789Z,5.55
2017-05-10T02:31:49.760Z,5.54
2017-05-10T02:34:16.733Z,5.53
2017-05-10T02:36:43.710Z,5.52
2017-05-10T02:39:10.697Z,5.53
2017-05-10T02:41:37.670Z,5.52
2017-05-10T02:44:04.638Z,5.52
2017-05-10T02:46:31.597Z,5.51
2017-05-10T02:48:58.589Z,5.51
2017-05-10T02:51:25.545Z,5.50
2017-05-10T02:53:52.572Z,5.49
2017-05-10T02:56:20.580Z,5.48
2017-05-10T02:58:47.549Z,5.46
2017-05-10T03:01:14.814Z,5.45
2017-05-10T03:03:41.773Z,5.44
2017-05-10T03:06:08.737Z,5.42
2017-05-10T03:08:35.717Z,5.39
2017-05-10T03:11:02.687Z,5.37
2017-05-10T03:13:29.682Z,5.35
2017-05-10T03:15:56.643Z,5.34
2017-05-10T03:18:23.613Z,5.32
2017-05-10T03:20:50.578Z,5.32
2017-05-10T03:23:17.557Z,5.26
2017-05-10T03:25:44.572Z,5.23
2017-05-10T03:28:11.558Z,5.20
2017-05-10T03:30:38.517Z,5.17
2017-05-10T03:33:05.481Z,5.14
2017-05-10T03:35:32.455Z,5.11
2017-05-10T03:37:59.437Z,5.08
2017-05-10T03:40:26.405Z,5.05
2017-05-10T03:42:53.371Z,5.01
2017-05-10T03:45:20.369Z,4.97
2017-05-10T03:47:47.363Z,4.94
2017-05-10T03:50:14.347Z,4.91
2017-05-10T03:52:41.329Z,4.88
2017-05-10T03:55:08.281Z,4.86
2017-05-10T03:57:35.265Z,4.83
2017-05-10T04:00:02.271Z,4.81
2017-05-10T04:02:29.221Z,4.78
2017-05-10T04:04:56.227Z,4.77
2017-05-10T04:07:23.203Z,4.73
2017-05-10T04:09:50.233Z,4.73
2017-05-10T04:12:17.223Z,4.72
2017-05-10T04:14:44.185Z,4.71
2017-05-10T04:17:11.154Z,4.70
2017-05-10T04:19:38.171Z,4.71
2017-05-10T04:22:05.159Z,4.70
2017-05-10T04:24:32.169Z,4.70
2017-05-10T04:26:59.141Z,4.71
2017-05-10T04:29:26.162Z,4.71
2017-05-10T04:31:53.191Z,4.72
2017-05-10T04:34:20.164Z,4.72
2017-05-10T04:36:47.205Z,4.75
2017-05-10T04:39:14.261Z,4.77
2017-05-10T04:41:54.481Z,4.79
2017-05-10T04:44:21.464Z,4.83
2017-05-10T04:46:48.489Z,4.86
2017-05-10T04:49:15.474Z,4.89
2017-05-10T04:51:42.447Z,4.91
2017-05-10T04:54:10.347Z,4.95
2017-05-10T04:56:37.301Z,4.98
2017-05-10T04:59:04.258Z,5.02
2017-05-10T05:01:31.394Z,5.06
2017-05-10T05:03:58.406Z,5.09
2017-05-10T05:06:25.514Z,5.12
2017-05-10T05:08:52.474Z,5.16
2017-05-10T05:11:19.498Z,5.20
2017-05-10T05:13:46.521Z,5.25
2017-05-10T05:16:14.109Z,5.30
2017-05-10T05:18:41.132Z,5.34
2017-05-10T05:21:08.519Z,5.40
2017-05-10T05:23:35.800Z,5.45
2017-05-10T05:26:02.846Z,5.51
2017-05-10T05:28:29.862Z,5.55
2017-05-10T05:30:59.869Z,5.62
2017-05-10T05:33:26.829Z,5.72
2017-05-10T05:35:53.818Z,5.83
2017-05-10T05:38:20.821Z,5.92
2017-05-10T05:40:47.810Z,6.01
2017-05-10T05:43:14.870Z,6.07
2017-05-10T05:45:41.857Z,6.12
2017-05-10T05:48:08.805Z,6.18
2017-05-10T05:50:35.764Z,6.23
2017-05-10T05:53:02.701Z,6.28
2017-05-10T05:55:29.698Z,6.34
2017-05-10T05:57:56.667Z,6.40
2017-05-10T06:00:23.632Z,6.45
2017-05-10T06:02:50.597Z,6.51
2017-05-10T06:05:17.541Z,6.57
2017-05-10T06:07:44.534Z,6.63
2017-05-10T06:10:11.481Z,6.69
2017-05-10T06:12:38.449Z,6.76
2017-05-10T06:15:05.443Z,6.81
2017-05-10T06:17:32.414Z,6.86
2017-05-10T06:20:00.397Z,6.92
2017-05-10T06:22:27.349Z,6.99
2017-05-10T06:24:54.297Z,7.04
2017-05-10T06:27:21.269Z,7.10
2017-05-10T06:29:48.253Z,7.16
2017-05-10T06:32:15.233Z,7.22
2017-05-10T06:34:42.187Z,7.28
2017-05-10T06:37:09.141Z,7.34
2017-05-10T06:39:36.107Z,7.40
2017-05-10T06:42:03.081Z,7.48
2017-05-10T06:44:30.064Z,7.54
2017-05-10T06:46:57.042Z,7.61
2017-05-10T06:49:23.988Z,7.68
2017-05-10T06:51:50.954Z,7.75
2017-05-10T06:54:17.903Z,7.81
2017-05-10T06:56:44.869Z,7.88
2017-05-10T06:59:11.809Z,7.95
2017-05-10T07:01:38.757Z,8.01
2017-05-10T07:04:05.721Z,8.07
2017-05-10T07:06:32.673Z,8.12
2017-05-10T07:08:59.625Z,8.18
2017-05-10T07:11:26.566Z,8.24
2017-05-10T07:13:53.653Z,8.29
2017-05-10T07:16:20.625Z,8.35
2017-05-10T07:18:47.631Z,8.42
2017-05-10T07:21:14.638Z,8.48
2017-05-10T07:23:41.582Z,8.54
2017-05-10T07:26:08.521Z,8.60
2017-05-10T07:28:35.485Z,8.67
2017-05-10T07:31:02.425Z,8.74
2017-05-10T07:33:29.397Z,8.82
2017-05-10T07:35:56.357Z,8.90
2017-05-10T07:38:23.329Z,8.97
2017-05-10T07:40:50.301Z,9.05
2017-05-10T07:43:17.241Z,9.12
2017-05-10T07:45:44.214Z,9.20
2017-05-10T07:48:11.177Z,9.29
2017-05-10T07:50:38.163Z,9.38
2017-05-10T07:53:05.322Z,9.49
2017-05-10T07:55:32.312Z,9.61
2017-05-10T07:57:59.416Z,9.74
2017-05-10T08:00:26.397Z,9.84
2017-05-10T08:02:53.358Z,9.93
2017-05-10T08:05:20.421Z,10.03
2017-05-10T08:07:47.414Z,10.12
2017-05-10T08:10:32.498Z,10.24
2017-05-10T08:12:59.461Z,10.36
2017-05-10T08:15:26.434Z,10.47
2017-05-10T08:17:53.441Z,10.59
2017-05-10T08:20:20.396Z,10.69
2017-05-10T08:22:47.383Z,10.80
2017-05-10T08:25:14.368Z,10.91
2017-05-10T08:27:41.332Z,11.03
2017-05-10T08:30:08.313Z,11.15
2017-05-10T08:32:35.285Z,11.27
2017-05-10T08:35:02.266Z,11.39
2017-05-10T08:37:29.266Z,11.50
2017-05-10T08:39:56.251Z,11.63
2017-05-10T08:42:23.226Z,11.75
2017-05-10T08:44:50.338Z,11.89
2017-05-10T08:47:17.320Z,12.03
2017-05-10T08:49:44.273Z,12.19
2017-05-10T08:52:12.189Z,12.37
2017-05-10T08:54:39.174Z,12.59
2017-05-10T08:57:06.146Z,12.85
2017-05-10T08:59:33.124Z,13.13
2017-05-10T09:02:00.093Z,13.43
2017-05-10T09:04:27.041Z,13.75
2017-05-10T09:06:53.989Z,14.12
2017-05-10T09:09:20.969Z,14.52
2017-05-10T09:11:47.921Z,14.94
2017-05-10T09:14:14.861Z,15.36
2017-05-10T09:16:41.816Z,15.79
2017-05-10T09:19:08.770Z,16.21
2017-05-10T09:21:35.741Z,16.62
2017-05-10T09:24:02.689Z,17.01
2017-05-10T09:26:29.645Z,17.38
2017-05-10T09:28:56.606Z,17.73
2017-05-10T09:31:23.557Z,18.05
2017-05-10T09:33:50.525Z,18.33
2017-05-10T09:36:17.477Z,18.59
2017-05-10T09:38:44.417Z,18.87
2017-05-10T09:41:11.389Z,19.09
2017-05-10T09:43:38.338Z,19.28
2017-05-10T09:46:05.311Z,19.43
2017-05-10T09:48:32.257Z,19.54
2017-05-10T09:50:59.210Z,19.64
2017-05-10T09:53:26.173Z,19.74
2017-05-10T09:55:53.120Z,19.84
2017-05-10T09:58:20.097Z,19.92
2017-05-10T10:00:47.042Z,19.94
2017-05-10T10:03:16.977Z,19.94
2017-05-10T10:05:43.951Z,19.95
2017-05-10T10:08:10.925Z,19.97
2017-05-10T10:10:37.898Z,19.98
2017-05-10T10:13:04.837Z,19.95
2017-05-10T10:15:31.784Z,19.91
2017-05-10T10:17:58.749Z,19.92
2017-05-10T10:20:25.693Z,19.95
2017-05-10T10:22:52.672Z,19.99
2017-05-10T10:25:19.625Z,20.05
2017-05-10T10:27:46.580Z,20.10
2017-05-10T10:30:13.539Z,20.11
2017-05-10T10:32:40.505Z,20.06
2017-05-10T10:35:07.479Z,20.02
2017-05-10T10:37:34.439Z,19.96
2017-05-10T10:40:01.390Z,19.94
2017-05-10T10:42:28.362Z,19.94
2017-05-10T10:44:55.318Z,19.96
2017-05-10T10:47:22.306Z,20.01
2017-05-10T10:49:49.257Z,20.04
2017-05-10T10:52:16.199Z,20.09
2017-05-10T10:54:43.149Z,20.18
2017-05-10T10:57:10.101Z,20.28
2017-05-10T10:59:38.981Z,20.35
2017-05-10T11:02:05.929Z,20.43
2017-05-10T11:04:32.872Z,20.50
2017-05-10T11:06:59.837Z,20.59
2017-05-10T11:09:26.777Z,20.64
2017-05-10T11:11:53.744Z,20.68
2017-05-10T11:14:20.689Z,20.72
2017-05-10T11:16:47.633Z,20.77
2017-05-10T11:19:14.589Z,20.83
2017-05-10T11:21:41.536Z,20.91
2017-05-10T11:24:08.503Z,21.00
2017-05-10T11:26:35.446Z,21.07
2017-05-10T11:29:02.389Z,21.08
2017-05-10T11:31:29.351Z,21.12
2017-05-10T11:33:56.298Z,21.15
2017-05-10T11:36:23.297Z,21.17
2017-05-10T11:38:50.241Z,21.20
2017-05-10T11:41:17.186Z,21.24
2017-05-10T11:43:44.144Z,21.30
2017-05-10T11:46:11.085Z,21.32
2017-05-10T11:48:38.045Z,21.33
2017-05-10T11:51:04.989Z,21.34
2017-05-10T11:53:31.925Z,21.35
2017-05-10T11:55:58.902Z,21.33
2017-05-10T11:58:25.850Z,21.35
2017-05-10T12:00:52.830Z,21.42
2017-05-10T12:03:19.785Z,21.49
2017-05-10T12:05:46.721Z,21.51
2017-05-10T12:08:13.681Z,21.51
2017-05-10T12:10:46.858Z,21.53
2017-05-10T12:13:13.821Z,21.55
2017-05-10T12:15:40.762Z,21.54
2017-05-10T12:18:07.710Z,21.57
2017-05-10T12:20:34.673Z,21.63
2017-05-10T12:23:01.631Z,21.70
2017-05-10T12:25:28.590Z,21.75
2017-05-10T12:27:55.539Z,21.80
2017-05-10T12:30:22.481Z,21.82
2017-05-10T12:32:49.466Z,21.85
2017-05-10T12:35:16.409Z,21.90
2017-05-10T12:37:43.362Z,21.96
2017-05-10T12:40:10.309Z,22.02
2017-05-10T12:42:37.257Z,22.07
2017-05-10T12:45:04.209Z,22.05
2017-05-10T12:47:31.162Z,22.05
2017-05-10T12:49:58.117Z,22.04
2017-05-10T12:52:25.053Z,22.04
2017-05-10T12:54:51.994Z,22.06
2017-05-10T12:57:18.962Z,22.08
2017-05-10T12:59:45.913Z,22.07
2017-05-10T13:02:12.884Z,22.03
2017-05-10T13:04:39.862Z,22.04
2017-05-10T13:07:06.802Z,22.04
2017-05-10T13:09:33.822Z,22.04
2017-05-10T13:12:00.766Z,22.02
2017-05-10T13:14:27.709Z,22.01
2017-05-10T13:16:54.668Z,22.02
2017-05-10T13:19:21.625Z,22.02
2017-05-10T13:21:48.577Z,22.00
2017-05-10T13:24:15.558Z,21.94
2017-05-10T13:26:42.556Z,21.90
2017-05-10T13:29:09.533Z,21.89
2017-05-10T13:31:50.899Z,21.89
2017-05-10T13:34:17.861Z,21.96
2017-05-10T13:36:44.802Z,22.06
2017-05-10T13:39:11.978Z,22.17
2017-05-10T13:41:38.969Z,22.31
2017-05-10T13:44:05.929Z,22.42
2017-05-10T13:46:32.886Z,22.49
2017-05-10T13:49:01.810Z,22.56
2017-05-10T13:51:28.814Z,22.59
2017-05-10T13:53:55.769Z,22.63
2017-05-10T13:56:22.741Z,22.66
2017-05-10T13:58:49.685Z,22.66
2017-05-10T14:01:16.649Z,22.65
2017-05-10T14:03:43.605Z,22.60
2017-05-10T14:06:10.588Z,22.57
2017-05-10T14:08:37.547Z,22.56
2017-05-10T14:11:04.495Z,22.52
2017-05-10T14:13:31.473Z,22.49
2017-05-10T14:15:58.417Z,22.46
2017-05-10T14:18:25.361Z,22.42
2017-05-10T14:20:52.511Z,22.43
2017-05-10T14:23:19.489Z,22.45
2017-05-10T14:25:46.467Z,22.44
2017-05-10T14:28:13.412Z,22.41
2017-05-10T14:33:26.175Z,22.35
2017-05-10T14:35:53.150Z,22.29
2017-05-10T14:38:20.089Z,22.25
2017-05-10T14:40:47.040Z,22.22
2017-05-10T14:43:14.005Z,22.19
2017-05-10T14:45:40.971Z,22.18
2017-05-10T14:48:08.017Z,22.15
2017-05-10T14:50:34.969Z,22.14
2017-05-10T14:53:01.914Z,22.13
2017-05-10T14:55:29.801Z,22.11
2017-05-10T14:57:56.741Z,22.10
2017-05-10T15:00:23.701Z,22.09
2017-05-10T15:02:50.653Z,22.06
2017-05-10T15:05:17.597Z,22.01
2017-05-10T15:10:30.707Z,21.94
2017-05-10T15:12:57.685Z,21.93
2017-05-10T15:15:24.635Z,21.91
2017-05-10T15:17:51.568Z,21.88
2017-05-10T15:20:18.594Z,21.88
2017-05-10T15:25:25.006Z,21.87
2017-05-10T15:27:52.103Z,21.85
2017-05-10T15:30:20.201Z,21.84
2017-05-10T15:32:47.170Z,21.87
2017-05-10T15:35:14.125Z,21.90
2017-05-10T15:37:41.089Z,21.90
2017-05-10T15:40:08.093Z,21.88
2017-05-10T15:42:47.797Z,21.85
2017-05-10T15:45:14.745Z,21.85
2017-05-10T15:47:41.692Z,21.84
2017-05-10T15:50:08.681Z,21.82
2017-05-10T15:52:35.617Z,21.78
2017-05-10T15:55:02.580Z,21.76
2017-05-10T15:57:29.521Z,21.72
2017-05-10T15:59:56.466Z,21.66
2017-05-10T16:02:30.074Z,21.61
2017-05-10T16:04:57.017Z,21.57
2017-05-10T16:07:23.989Z,21.53
2017-05-10T16:09:50.933Z,21.50
2017-05-10T16:12:17.876Z,21.48
2017-05-10T16:14:44.829Z,21.47
2017-05-10T16:17:11.770Z,21.44
2017-05-10T16:19:38.735Z,21.41
2017-05-10T16:22:05.686Z,21.37
2017-05-10T16:24:32.631Z,21.34
2017-05-10T16:27:07.221Z,21.33
2017-05-10T16:29:34.347Z,21.31
2017-05-10T16:32:01.550Z,21.27
2017-05-10T16:34:29.554Z,21.21
2017-05-10T16:36:56.606Z,21.15
2017-05-10T16:39:23.574Z,21.12
2017-05-10T16:41:50.558Z,21.07
2017-05-10T16:44:17.619Z,21.03
2017-05-10T16:46:44.558Z,21.01
2017-05-10T16:49:11.501Z,20.99
2017-05-10T16:51:38.458Z,20.96
2017-05-10T16:54:05.537Z,20.93
2017-05-10T16:56:32.504Z,20.91
2017-05-10T16:58:59.445Z,20.87
2017-05-10T17:01:26.386Z,20.81
2017-05-10T17:03:58.177Z,20.76
2017-05-10T17:06:25.121Z,20.72
2017-05-10T17:08:52.091Z,20.66
2017-05-10T17:11:19.050Z,20.62
2017-05-10T17:13:46.040Z,20.58
2017-05-10T17:16:13.113Z,20.52
2017-05-10T17:18:41.205Z,20.46
2017-05-10T17:21:08.507Z,20.39
2017-05-10T17:23:35.797Z,20.32
2017-05-10T17:26:03.055Z,20.23
2017-05-10T17:28:30.351Z,20.14
2017-05-10T17:30:57.654Z,20.04
2017-05-10T17:33:26.941Z,19.94
2017-05-10T17:35:54.202Z,19.83
2017-05-10T17:38:21.473Z,19.72
2017-05-10T17:40:48.793Z,19.60
2017-05-10T17:43:16.086Z,19.47
2017-05-10T17:45:43.419Z,19.38
2017-05-10T17:48:20.662Z,19.27
2017-05-10T17:50:48.000Z,19.15
2017-05-10T17:53:15.298Z,19.02
2017-05-10T17:55:42.549Z,18.89
2017-05-10T17:58:09.881Z,18.77
2017-05-10T18:00:37.160Z,18.63
2017-05-10T18:03:04.505Z,18.50
2017-05-10T18:05:31.776Z,18.37
2017-05-10T18:07:59.057Z,18.25
2017-05-10T18:10:26.365Z,18.12
2017-05-10T18:12:53.668Z,18.00
2017-05-10T18:15:21.000Z,17.86
2017-05-10T18:17:48.645Z,17.75
2017-05-10T18:20:15.918Z,17.62
2017-05-10T18:22:43.205Z,17.49
2017-05-10T18:25:12.477Z,17.38
2017-05-10T18:27:40.619Z,17.25
2017-05-10T18:30:07.904Z,17.14
2017-05-10T18:32:35.180Z,17.03
2017-05-10T18:35:02.448Z,16.90
2017-05-10T18:37:30.790Z,16.79
2017-05-10T18:39:58.147Z,16.65
2017-05-10T18:42:25.433Z,16.54
2017-05-10T18:44:52.955Z,16.41
2017-05-10T18:47:20.263Z,16.28
2017-05-10T18:49:47.541Z,16.16
2017-05-10T18:52:14.920Z,16.04
2017-05-10T18:54:42.204Z,15.93
2017-05-10T18:57:09.477Z,15.83
2017-05-10T18:59:36.756Z,15.71
2017-05-10T19:02:04.034Z,15.59
2017-05-10T19:04:31.377Z,15.50
2017-05-10T19:06:58.677Z,15.39
2017-05-10T19:09:25.954Z,15.28
2017-05-10T19:11:54.191Z,15.17
2017-05-10T19:14:21.186Z,15.07
2017-05-10T19:16:48.150Z,14.96
2017-05-10T19:19:15.094Z,14.86
2017-05-10T19:21:42.037Z,14.76
2017-05-10T19:24:09.004Z,14.66
2017-05-10T19:26:35.953Z,14.56
2017-05-10T19:29:02.953Z,14.47
2017-05-10T19:31:29.919Z,14.38
2017-05-10T19:33:58.219Z,14.28
2017-05-10T19:36:25.198Z,14.20
2017-05-10T19:38:52.145Z,14.10
2017-05-10T19:41:21.065Z,14.00
2017-05-10T19:43:48.017Z,13.92
2017-05-10T19:46:15.014Z,13.83
2017-05-10T19:48:42.042Z,13.75
2017-05-10T19:51:09.110Z,13.66
2017-05-10T19:53:37.562Z,13.57
2017-05-10T19:56:04.521Z,13.49
2017-05-10T19:58:34.686Z,13.39
2017-05-10T20:01:01.653Z,13.31
2017-05-10T20:03:28.624Z,13.22
2017-05-10T20:05:55.629Z,13.13
2017-05-10T20:08:22.585Z,13.04
2017-05-10T20:10:49.537Z,12.98
2017-05-10T20:13:16.517Z,12.91
2017-05-10T20:15:44.360Z,12.84
2017-05-10T20:18:30.095Z,12.78
2017-05-10T20:20:57.053Z,12.72
2017-05-10T20:23:24.084Z,12.65
2017-05-10T20:25:51.064Z,12.59
2017-05-10T20:28:18.043Z,12.52
2017-05-10T20:30:45.037Z,12.43
2017-05-10T20:33:11.993Z,12.35
2017-05-10T20:35:38.989Z,12.26
2017-05-10T20:38:05.949Z,12.18
2017-05-10T20:40:32.934Z,12.10
2017-05-10T20:48:36.703Z,11.87
2017-05-10T20:51:03.691Z,11.79
2017-05-10T20:53:30.653Z,11.72
2017-05-10T20:55:57.641Z,11.65
2017-05-10T20:58:24.671Z,11.58
2017-05-10T21:00:51.653Z,11.51
2017-05-10T21:03:18.602Z,11.45
2017-05-10T21:05:45.614Z,11.38
2017-05-10T21:08:12.690Z,11.32
2017-05-10T21:10:39.714Z,11.28
2017-05-10T21:13:06.719Z,11.20
2017-05-10T21:15:33.714Z,11.14
2017-05-10T21:18:00.701Z,11.07
2017-05-10T21:20:27.714Z,11.01
2017-05-10T21:22:54.768Z,10.95
2017-05-10T21:25:21.774Z,10.90
2017-05-10T21:27:48.746Z,10.85
2017-05-10T21:30:15.738Z,10.79
2017-05-10T21:32:42.766Z,10.74
2017-05-10T21:35:09.757Z,10.68
2017-05-10T21:37:36.760Z,10.63
2017-05-10T21:40:03.802Z,10.59
2017-05-10T21:42:30.760Z,10.54
2017-05-10T21:44:57.795Z,10.49
2017-05-10T21:47:24.806Z,10.43
2017-05-10T21:49:51.851Z,10.39
2017-05-10T21:52:18.822Z,10.35
2017-05-10T21:54:45.854Z,10.30
2017-05-10T21:57:12.835Z,10.26
2017-05-10T21:59:39.810Z,10.22
2017-05-10T22:02:06.781Z,10.18
2017-05-10T22:04:33.741Z,10.13
2017-05-10T22:07:00.701Z,10.09
2017-05-10T22:09:27.677Z,10.05
2017-05-10T22:11:54.637Z,10.00
2017-05-10T22:14:21.618Z,9.96
2017-05-10T22:16:48.565Z,9.92
2017-05-10T22:19:15.539Z,9.87
2017-05-10T22:21:42.552Z,9.83
2017-05-10T22:24:09.525Z,9.79
2017-05-10T22:26:36.506Z,9.76
2017-05-10T22:29:03.505Z,9.71
2017-05-10T22:31:30.462Z,9.67
2017-05-10T22:33:57.464Z,9.64
2017-05-10T22:36:24.441Z,9.59
2017-05-10T22:38:51.414Z,9.55
2017-05-10T22:41:18.450Z,9.52
2017-05-10T22:43:45.464Z,9.48
2017-05-10T22:46:12.421Z,9.45
2017-05-10T22:48:39.408Z,9.41
2017-05-10T22:51:06.405Z,9.38
2017-05-10T22:53:33.402Z,9.34
2017-05-10T22:56:00.382Z,9.30
2017-05-10T22:58:27.360Z,9.27
2017-05-10T23:00:54.337Z,9.23
2017-05-10T23:03:21.345Z,9.20
2017-05-10T23:05:48.317Z,9.16
2017-05-10T23:08:15.285Z,9.14
2017-05-10T23:10:42.275Z,9.11
2017-05-10T23:13:09.240Z,9.08
2017-05-10T23:15:37.901Z,9.06
2017-05-10T23:18:04.921Z,9.04
2017-05-10T23:20:31.881Z,9.02
2017-05-10T23:22:58.850Z,9.00
2017-05-10T23:25:25.826Z,8.99
2017-05-10T23:27:52.805Z,8.96
2017-05-10T23:30:19.781Z,8.95
2017-05-10T23:32:46.741Z,8.93
2017-05-10T23:35:13.685Z,8.91
2017-05-10T23:37:40.661Z,8.89
2017-05-10T23:40:07.671Z,8.88
2017-05-10T23:42:34.642Z,8.86
2017-05-10T23:45:01.589Z,8.84
2017-05-10T23:47:28.546Z,8.83
2017-05-10T23:49:55.517Z,8.82
2017-05-10T23:52:22.485Z,8.81
2017-05-10T23:54:49.510Z,8.79
2017-05-10T23:57:16.537Z,8.78
2017-05-10T23:59:43.500Z,8.77
